Time;durP1;ratioP1;P1;durP2;ratioP2;P2;SDS_P1;SDS_P2;PMS_P1;PMS_P2;Temp;Humidity;BMP_temperature;BMP_pressure;BME280_temperature;BME280_humidity;BME280_pressure;Samples;Min_cycle;Max_cycle;Signal;HPM_P1;HPM_P2
2021/06/12 00:03:56;;;;;;;4.82;3.70;;;;;;;23.45;50.59;100367.41;10458021;28;20048;-72
2021/06/12 00:08:57;;;;;;;4.40;4.00;;;;;;;23.45;50.49;100357.38;10456717;28;20044;-73
2021/06/12 00:13:59;;;;;;;5.30;3.60;;;;;;;23.41;50.88;100349.84;10461469;28;20056;-73
2021/06/12 00:19:00;;;;;;;3.50;3.20;;;;;;;23.39;51.40;100360.91;10461287;28;20071;-74
2021/06/12 00:24:06;;;;;;;4.90;3.80;;;;;;;23.36;50.92;100360.47;10472233;28;20060;-74
2021/06/12 00:29:08;;;;;;;5.40;3.95;;;;;;;23.33;51.91;100377.16;10458808;28;20451;-74
2021/06/12 00:34:09;;;;;;;3.95;3.65;;;;;;;23.22;52.03;100360.44;10468621;28;20127;-73
2021/06/12 00:39:11;;;;;;;4.80;3.75;;;;;;;23.21;52.05;100364.19;10467099;28;20064;-73
2021/06/12 00:44:12;;;;;;;4.88;3.50;;;;;;;23.21;51.93;100368.78;10465007;28;20499;-74
2021/06/12 00:49:13;;;;;;;4.20;3.80;;;;;;;23.19;52.08;100354.56;10447627;28;20072;-74
2021/06/12 00:54:15;;;;;;;4.75;4.00;;;;;;;23.14;52.16;100352.47;10458018;28;20049;-74
2021/06/12 00:59:16;;;;;;;4.80;4.07;;;;;;;23.04;52.24;100350.09;10454916;28;20060;-74
2021/06/12 01:04:23;;;;;;;3.83;3.53;;;;;;;23.06;52.50;100345.31;10452132;28;20418;-74
2021/06/12 01:09:25;;;;;;;3.78;3.47;;;;;;;23.04;52.70;100351.97;10454616;28;20140;-73
2021/06/12 01:14:30;;;;;;;4.35;3.88;;;;;;;23.01;52.75;100336.94;10463114;28;20533;-73
2021/06/12 01:19:37;;;;;;;4.63;4.22;;;;;;;23.02;52.83;100343.22;10470027;28;20605;-73
2021/06/12 01:25:00;;;;;;;4.97;3.70;;;;;;;22.89;53.17;100339.38;10471167;28;20063;-73
2021/06/12 01:30:07;;;;;;;4.20;3.78;;;;;;;22.86;53.46;100339.78;10467685;28;20100;-74
2021/06/12 01:35:14;;;;;;;6.93;4.43;;;;;;;22.76;53.96;100332.06;10462335;28;20108;-73
2021/06/12 01:40:17;;;;;;;4.88;4.40;;;;;;;22.80;54.35;100329.75;10460563;28;20102;-73
2021/06/12 01:45:20;;;;;;;4.78;4.38;;;;;;;22.75;54.54;100315.97;10477525;28;20079;-73
2021/06/12 01:50:24;;;;;;;5.93;4.88;;;;;;;22.77;54.55;100313.88;10467720;28;20044;-74
2021/06/12 01:55:29;;;;;;;6.13;4.63;;;;;;;22.72;54.77;100316.38;10460043;28;20083;-72
2021/06/12 02:00:30;;;;;;;4.97;4.47;;;;;;;22.65;55.05;100320.94;10469445;28;20048;-73
2021/06/12 02:05:32;;;;;;;6.40;4.65;;;;;;;22.61;55.52;100320.50;10466341;28;20068;-73
2021/06/12 02:10:34;;;;;;;6.03;5.43;;;;;;;22.54;55.55;100315.03;10473781;28;20056;-73
2021/06/12 02:15:37;;;;;;;5.82;5.05;;;;;;;22.48;56.06;100304.97;10483901;28;20666;-74
2021/06/12 02:20:39;;;;;;;5.85;5.20;;;;;;;22.46;56.07;100317.91;10470207;28;20040;-73
2021/06/12 02:25:40;;;;;;;5.72;5.22;;;;;;;22.35;56.58;100324.75;10465603;28;20132;-74
2021/06/12 02:30:50;;;;;;;6.60;5.03;;;;;;;22.30;56.72;100326.34;10472670;28;20135;-73
2021/06/12 02:35:52;;;;;;;6.38;5.32;;;;;;;22.25;57.06;100333.19;10468981;28;20533;-73
2021/06/12 02:40:56;;;;;;;8.27;5.90;;;;;;;22.20;57.28;100319.41;10462143;28;20078;-72
2021/06/12 02:45:58;;;;;;;;;;;;;;;22.18;57.41;100326.88;10474111;28;22920;-74
2021/06/12 02:51:01;;;;;;;6.90;6.30;;;;;;;22.08;57.55;100320.97;10464165;28;19928;-73
2021/06/12 02:56:03;;;;;;;6.30;5.70;;;;;;;21.96;57.44;100319.84;10462511;28;20045;-73
2021/06/12 03:01:05;;;;;;;6.40;5.80;;;;;;;21.89;57.67;100317.91;10467647;28;20064;-74
2021/06/12 03:06:07;;;;;;;6.35;5.75;;;;;;;21.90;57.60;100332.28;10469779;28;20064;-73
2021/06/12 03:11:10;;;;;;;7.53;5.60;;;;;;;21.84;58.04;100325.81;10457158;28;20191;-73
2021/06/12 03:16:14;;;;;;;6.67;6.07;;;;;;;21.85;58.95;100316.63;10470459;28;20078;-74
2021/06/12 03:21:21;;;;;;;6.72;6.20;;;;;;;21.83;58.87;100332.25;10465056;28;20097;-74
2021/06/12 03:26:23;;;;;;;6.40;5.85;;;;;;;21.76;58.79;100323.22;10466765;28;20562;-73
2021/06/12 03:31:27;;;;;;;6.07;5.57;;;;;;;21.74;58.54;100328.00;10469415;28;20072;-74
2021/06/12 03:36:29;;;;;;;6.72;6.05;;;;;;;21.75;58.94;100340.50;10469337;28;20063;-74
2021/06/12 03:41:30;;;;;;;6.15;5.63;;;;;;;21.69;59.08;100327.75;10460736;28;20094;-73
2021/06/12 03:46:33;;;;;;;6.90;5.30;;;;;;;21.70;59.44;100337.56;10462775;28;20053;-74
2021/06/12 03:51:35;;;;;;;7.32;6.30;;;;;;;21.81;59.25;100353.28;10459743;28;20109;-73
2021/06/12 03:56:39;;;;;;;7.25;5.88;;;;;;;21.78;59.24;100352.81;10459493;28;20485;-73
2021/06/12 04:01:47;;;;;;;6.80;6.18;;;;;;;21.77;59.03;100341.16;10471402;28;20047;-73
2021/06/12 04:06:50;;;;;;;7.35;6.20;;;;;;;21.75;59.01;100342.38;10460391;28;20040;-73
2021/06/12 04:11:51;;;;;;;6.88;6.18;;;;;;;21.83;59.17;100342.25;10458533;28;21574;-75
2021/06/12 04:16:52;;;;;;;12.00;7.13;;;;;;;21.92;58.74;100342.94;10468945;28;20550;-73
2021/06/12 04:21:54;;;;;;;6.85;6.03;;;;;;;21.76;59.87;100339.47;10466458;28;20041;-74
2021/06/12 04:26:55;;;;;;;6.65;6.05;;;;;;;21.85;59.61;100359.97;10463669;28;20156;-73
2021/06/12 04:31:57;;;;;;;7.90;7.03;;;;;;;21.86;59.87;100355.41;10467920;28;20186;-74
2021/06/12 04:37:02;;;;;;;8.25;7.45;;;;;;;21.76;60.04;100344.91;10456860;28;20044;-73
2021/06/12 04:42:04;;;;;;;7.18;6.60;;;;;;;21.85;59.61;100353.72;10458212;28;20176;-72
2021/06/12 04:47:05;;;;;;;7.95;7.18;;;;;;;21.83;59.93;100356.63;10464796;28;20589;-73
2021/06/12 04:52:07;;;;;;;6.63;6.03;;;;;;;21.92;60.08;100361.91;10452555;28;20119;-74
2021/06/12 04:57:08;;;;;;;4.47;4.07;;;;;;;21.89;59.59;100363.97;10454307;28;20127;-73
2021/06/12 05:02:10;;;;;;;5.82;4.65;;;;;;;21.93;59.79;100361.72;10465347;28;20087;-73
2021/06/12 05:07:11;;;;;;;4.72;4.10;;;;;;;22.01;59.70;100355.34;10467141;28;20102;-74
2021/06/12 05:12:13;;;;;;;5.60;5.00;;;;;;;21.97;60.33;100362.16;10461206;28;20082;-73
2021/06/12 05:17:17;;;;;;;6.55;5.53;;;;;;;22.04;59.40;100363.91;10463533;28;20060;-73
2021/06/12 05:22:26;;;;;;;8.40;6.30;;;;;;;22.11;60.24;100388.34;10462314;28;20135;-73
2021/06/12 05:27:27;;;;;;;6.95;6.35;;;;;;;22.15;61.11;100375.25;10467805;28;20143;-74
2021/06/12 05:32:29;;;;;;;8.20;7.50;;;;;;;22.16;60.46;100369.63;10469053;28;20136;-73
2021/06/12 05:37:30;;;;;;;9.13;7.75;;;;;;;22.18;60.68;100383.81;10452624;28;20131;-77
2021/06/12 05:42:31;;;;;;;8.95;8.15;;;;;;;22.19;60.64;100388.22;10454207;28;20129;-75
2021/06/12 05:47:33;;;;;;;10.00;9.00;;;;;;;22.25;60.50;100386.59;10468518;28;20874;-75
2021/06/12 05:52:35;;;;;;;8.80;8.07;;;;;;;22.29;60.61;100387.03;10469374;28;20476;-74
2021/06/12 05:57:36;;;;;;;8.05;7.18;;;;;;;22.64;59.95;100406.06;10466985;28;20139;-76
2021/06/12 06:02:37;;;;;;;8.93;8.13;;;;;;;22.69;59.16;100400.88;10464781;28;20052;-73
2021/06/12 06:07:39;;;;;;;8.40;7.20;;;;;;;22.62;59.05;100398.13;10469314;28;20505;-75
2021/06/12 06:12:41;;;;;;;8.20;7.50;;;;;;;22.84;58.66;100406.19;10467728;28;20068;-75
2021/06/12 06:17:43;;;;;;;7.85;6.78;;;;;;;23.01;57.81;100395.81;10477006;28;20078;-75
2021/06/12 06:22:44;;;;;;;7.20;6.50;;;;;;;23.18;57.74;100394.47;10469674;28;20123;-75
2021/06/12 06:27:45;;;;;;;7.05;6.40;;;;;;;23.11;57.30;100390.91;10463203;28;20078;-75
2021/06/12 06:32:48;;;;;;;7.18;6.50;;;;;;;23.12;57.62;100398.84;10464907;28;20059;-76
2021/06/12 06:37:50;;;;;;;9.10;6.80;;;;;;;23.10;57.66;100391.91;10465229;28;20049;-73
2021/06/12 06:42:51;;;;;;;8.05;7.22;;;;;;;23.26;57.29;100404.31;10465523;28;20105;-75
2021/06/12 06:47:55;;;;;;;7.25;5.78;;;;;;;23.30;57.29;100411.03;10464934;28;20127;-74
2021/06/12 06:52:59;;;;;;;6.68;5.22;;;;;;;23.32;56.67;100413.53;10468060;28;20048;-74
2021/06/12 06:58:01;;;;;;;6.20;4.68;;;;;;;23.27;56.47;100414.97;10463024;28;20124;-74
2021/06/12 07:03:04;;;;;;;5.20;4.38;;;;;;;23.55;56.03;100424.03;10465536;28;20135;-74
2021/06/12 07:08:06;;;;;;;;;;;;;;;23.83;55.60;100426.63;10464904;28;20068;-74
2021/06/12 07:13:08;;;;;;;5.05;4.55;;;;;;;24.05;54.92;100408.28;10465300;28;19927;-74
2021/06/12 07:18:09;;;;;;;6.97;4.72;;;;;;;24.28;54.58;100399.69;10464173;28;20080;-74
2021/06/12 07:23:10;;;;;;;7.53;5.53;;;;;;;24.40;54.15;100389.00;10461516;28;20134;-74
2021/06/12 07:28:13;;;;;;;6.82;5.40;;;;;;;24.62;52.82;100386.91;10478671;28;20153;-73
2021/06/12 07:33:15;;;;;;;7.32;5.38;;;;;;;24.82;52.86;100375.13;10461874;28;20427;-74
2021/06/12 07:38:16;;;;;;;6.45;5.82;;;;;;;24.90;52.23;100366.72;10461713;28;20405;-74
2021/06/12 07:43:19;;;;;;;8.23;5.50;;;;;;;24.85;52.56;100363.81;10462702;28;20044;-75
2021/06/12 07:48:21;;;;;;;8.70;5.65;;;;;;;25.00;52.28;100383.44;10461773;28;20177;-74
2021/06/12 07:53:23;;;;;;;8.88;6.65;;;;;;;25.18;50.99;100374.53;10462342;28;20528;-74
2021/06/12 07:58:24;;;;;;;8.82;7.28;;;;;;;25.20;50.24;100383.31;10460615;28;20056;-71
2021/06/12 08:03:28;;;;;;;8.20;7.05;;;;;;;25.44;49.88;100385.56;10457247;28;20132;-73
2021/06/12 08:08:29;;;;;;;8.23;6.05;;;;;;;25.56;50.20;100368.28;10456816;28;20131;-73
2021/06/12 08:13:31;;;;;;;10.10;9.15;;;;;;;25.64;49.44;100372.66;10452800;28;20113;-73
2021/06/12 08:18:33;;;;;;;7.90;6.78;;;;;;;25.77;48.85;100377.97;10456972;28;20139;-74
2021/06/12 08:23:36;;;;;;;7.18;6.47;;;;;;;25.68;49.55;100373.03;10453728;28;20048;-75
2021/06/12 08:28:38;;;;;;;11.73;8.75;;;;;;;25.80;49.01;100381.34;10455726;28;20060;-72
2021/06/12 08:33:39;;;;;;;9.43;7.28;;;;;;;25.79;49.87;100390.56;10457839;28;20131;-74
2021/06/12 08:38:41;;;;;;;10.63;8.13;;;;;;;25.92;48.85;100401.38;10455539;28;20060;-75
2021/06/12 08:43:42;;;;;;;9.63;6.72;;;;;;;25.91;49.40;100394.25;10435408;28;21621;-75
2021/06/12 08:48:58;;;;;;;7.82;6.55;;;;;;;26.13;48.23;100388.47;10455494;28;20134;-74
2021/06/12 08:54:00;;;;;;;7.35;6.20;;;;;;;26.31;47.70;100387.66;10457149;28;20135;-75
2021/06/12 08:59:02;;;;;;;7.03;6.10;;;;;;;26.42;48.12;100389.63;10457391;28;20132;-75
2021/06/12 09:04:04;;;;;;;5.13;4.25;;;;;;;26.80;46.25;100392.22;10457337;28;20124;-75
2021/06/12 09:09:05;;;;;;;4.37;3.30;;;;;;;26.42;45.25;100390.50;10456948;28;20053;-74
2021/06/12 09:14:07;;;;;;;5.18;3.50;;;;;;;26.16;46.36;100390.72;10458094;28;20052;-75
2021/06/12 09:19:21;;;;;;;5.60;4.43;;;;;;;26.40;46.38;100387.13;10467625;28;20110;-75
2021/06/12 09:24:45;;;;;;;3.58;3.28;;;;;;;27.19;45.01;100382.91;10457157;28;20059;-76
2021/06/12 09:29:50;;;;;;;4.55;3.17;;;;;;;26.68;43.73;100382.25;10448720;28;20082;-75
2021/06/12 09:34:54;;;;;;;4.50;3.28;;;;;;;27.11;44.20;100374.00;10454617;28;20131;-76
2021/06/12 09:40:10;;;;;;;6.43;3.72;;;;;;;27.62;42.38;100381.91;10452625;28;20550;-74
2021/06/12 09:45:15;;;;;;;4.25;3.75;;;;;;;28.13;41.01;100364.06;10453469;28;20072;-76
2021/06/12 09:50:23;;;;;;;8.65;3.55;;;;;;;28.06;41.15;100382.53;10469771;28;20064;-75
2021/06/12 09:55:28;;;;;;;4.10;2.67;;;;;;;27.81;41.00;100377.22;10469697;28;20053;-75
2021/06/12 10:00:39;;;;;;;3.03;2.70;;;;;;;28.11;40.45;100382.63;10456842;28;20119;-75
2021/06/12 10:05:41;;;;;;;2.40;2.08;;;;;;;29.01;38.11;100371.50;10458169;28;20110;-75
2021/06/12 10:10:50;;;;;;;3.90;2.88;;;;;;;28.55;39.06;100369.44;10461201;28;20071;-75
2021/06/12 10:15:52;;;;;;;2.88;2.13;;;;;;;28.78;39.68;100372.38;10462113;28;20090;-76
2021/06/12 10:20:54;;;;;;;2.20;2.00;;;;;;;28.42;39.01;100372.41;10475531;28;20072;-75
2021/06/12 10:25:55;;;;;;;2.65;2.17;;;;;;;28.38;39.83;100379.44;10469683;28;20129;-76
2021/06/12 10:31:01;;;;;;;3.47;2.30;;;;;;;27.94;40.05;100378.88;10466789;28;20261;-77
2021/06/12 10:36:13;;;;;;;2.55;1.40;;;;;;;28.20;38.58;100383.13;10466471;28;20055;-77
2021/06/12 10:41:27;;;;;;;1.60;1.40;;;;;;;28.30;37.86;100379.78;10463370;28;20052;-77
2021/06/12 10:46:32;;;;;;;4.32;1.60;;;;;;;28.35;38.54;100385.38;10461791;28;20906;-77
2021/06/12 10:51:34;;;;;;;1.20;0.98;;;;;;;28.68;37.60;100373.00;10459352;28;20422;-77
2021/06/12 10:56:37;;;;;;;2.05;1.13;;;;;;;28.72;36.35;100366.81;10448463;28;20052;-76
2021/06/12 11:02:04;;;;;;;1.33;1.00;;;;;;;28.70;36.64;100374.41;10450454;28;20386;-77
2021/06/12 11:07:25;;;;;;;0.93;0.70;;;;;;;28.85;36.31;100379.38;10447949;28;20132;-76
2021/06/12 11:12:30;;;;;;;0.90;0.80;;;;;;;28.81;36.45;100375.50;10454945;28;20329;-76
2021/06/12 11:17:32;;;;;;;1.25;0.80;;;;;;;28.50;37.82;100383.00;10462467;28;20059;-77
2021/06/12 11:22:37;;;;;;;1.52;1.00;;;;;;;28.30;36.31;100379.78;10468764;28;20078;-78
2021/06/12 11:27:49;;;;;;;1.75;0.80;;;;;;;28.52;36.56;100386.31;10461474;28;20138;-78
2021/06/12 11:32:57;;;;;;;2.10;1.20;;;;;;;28.21;34.99;100380.16;10468540;22;20044;-68
2021/06/12 11:38:00;;;;;;;1.48;1.02;;;;;;;28.81;34.25;100367.28;10456628;28;20040;-69
2021/06/12 11:43:02;;;;;;;1.95;1.35;;;;;;;28.74;35.50;100372.03;10462952;28;20143;-69
2021/06/12 11:48:20;;;;;;;;;;;;;;;28.91;34.21;100381.19;10460980;28;20492;-69
2021/06/12 11:53:33;;;;;;;1.20;1.10;;;;;;;28.39;36.33;100367.44;10460468;28;19982;-69
2021/06/12 11:58:58;;;;;;;2.63;1.25;;;;;;;28.07;37.28;100378.69;10462620;28;20051;-69
2021/06/12 12:04:04;;;;;;;1.40;1.30;;;;;;;27.30;38.51;100379.41;10456581;28;20052;-69
2021/06/12 12:09:06;;;;;;;1.88;1.40;;;;;;;27.04;37.79;100370.50;10457919;28;20159;-69
2021/06/12 12:14:07;;;;;;;2.83;1.47;;;;;;;27.14;37.98;100379.00;10463485;28;20052;-69
2021/06/12 12:19:09;;;;;;;1.92;1.10;;;;;;;27.07;36.95;100359.13;10464140;28;20136;-69
2021/06/12 12:24:16;;;;;;;3.17;0.90;;;;;;;26.88;36.33;100371.13;10462220;28;20060;-70
2021/06/12 12:29:22;;;;;;;1.57;0.97;;;;;;;26.90;36.01;100369.84;10463884;28;20117;-69
2021/06/12 12:34:30;;;;;;;1.77;0.68;;;;;;;26.62;36.74;100370.34;10459788;28;20573;-69
2021/06/12 12:39:52;;;;;;;0.80;0.77;;;;;;;26.58;36.93;100371.84;10463242;28;20737;-70
2021/06/12 12:44:54;;;;;;;1.27;0.97;;;;;;;26.38;37.96;100359.25;10462037;28;20115;-69
2021/06/12 12:49:57;;;;;;;1.58;0.98;;;;;;;26.53;37.77;100374.41;10460845;28;20041;-69
2021/06/12 12:55:09;;;;;;;3.47;1.40;;;;;;;26.74;38.72;100382.19;10462286;28;20153;-69
2021/06/12 13:00:23;;;;;;;2.90;1.25;;;;;;;26.64;38.94;100398.25;10457487;28;20080;-69
2021/06/12 13:05:26;;;;;;;2.15;1.60;;;;;;;26.25;39.25;100383.94;10462000;28;20045;-69
2021/06/12 13:10:29;;;;;;;2.72;1.55;;;;;;;25.97;40.45;100387.91;10461724;28;20044;-68
2021/06/12 13:15:32;;;;;;;1.92;1.50;;;;;;;26.22;40.86;100406.22;10462470;28;20076;-69
2021/06/12 13:20:34;;;;;;;2.97;2.00;;;;;;;26.03;42.27;100425.25;10467458;28;20131;-69
2021/06/12 13:25:36;;;;;;;3.85;2.75;;;;;;;25.66;44.12;100429.66;10490385;28;20045;-69
2021/06/12 13:30:43;;;;;;;3.05;2.28;;;;;;;25.51;45.07;100424.50;10465296;28;20576;-70
2021/06/12 13:35:46;;;;;;;4.35;3.65;;;;;;;25.32;46.10;100429.81;10464510;28;20051;-69
2021/06/12 13:40:48;;;;;;;10.80;9.07;;;;;;;24.91;46.71;100438.34;10457919;28;20060;-69
2021/06/12 13:45:54;;;;;;;2.85;2.63;;;;;;;24.93;45.94;100441.69;10460049;28;20484;-69
2021/06/12 13:50:56;;;;;;;3.17;2.20;;;;;;;25.03;45.32;100445.63;10458829;28;20460;-70
2021/06/12 13:55:57;;;;;;;3.80;2.72;;;;;;;24.55;45.61;100454.06;10467708;28;20119;-70
2021/06/12 14:00:59;;;;;;;2.70;2.25;;;;;;;24.17;47.07;100468.31;10467785;28;20131;-69
2021/06/12 14:06:01;;;;;;;2.85;2.65;;;;;;;23.86;47.53;100469.72;10468573;28;20053;-69
2021/06/12 14:11:05;;;;;;;3.28;2.20;;;;;;;24.15;47.03;100483.97;10469182;28;20087;-70
2021/06/12 14:16:06;;;;;;;3.50;2.42;;;;;;;23.82;47.85;100485.59;10469147;28;20520;-69
2021/06/12 14:21:08;;;;;;;3.58;2.67;;;;;;;23.65;47.52;100498.69;10465882;28;20410;-70
2021/06/12 14:26:12;;;;;;;3.78;2.50;;;;;;;23.39;47.23;100499.44;10470091;28;20040;-69
2021/06/12 14:31:13;;;;;;;2.78;2.58;;;;;;;23.52;47.38;100522.25;10466135;28;20131;-69
2021/06/12 14:36:14;;;;;;;2.80;2.60;;;;;;;23.47;47.98;100503.84;10468950;28;20048;-69
2021/06/12 14:41:19;;;;;;;3.08;2.35;;;;;;;24.57;45.65;100492.78;10466850;28;20529;-69
2021/06/12 14:46:21;;;;;;;2.72;2.53;;;;;;;24.75;43.82;100484.00;10467696;28;20079;-71
2021/06/12 14:51:23;;;;;;;3.70;3.30;;;;;;;25.06;43.69;100483.31;10492095;28;20105;-70
2021/06/12 14:56:24;;;;;;;3.55;3.25;;;;;;;24.75;43.78;100472.28;10488693;28;20048;-69
2021/06/12 15:01:26;;;;;;;3.85;3.30;;;;;;;24.70;44.58;100481.91;10469800;28;20135;-69
2021/06/12 15:06:27;;;;;;;4.13;3.30;;;;;;;24.57;44.09;100481.06;10465149;28;20053;-69
2021/06/12 15:11:29;;;;;;;2.95;2.75;;;;;;;24.18;43.88;100481.69;10467500;28;20204;-69
2021/06/12 15:16:30;;;;;;;4.32;3.03;;;;;;;24.38;44.10;100474.56;10467272;28;21484;-69
2021/06/12 15:21:32;;;;;;;3.38;3.08;;;;;;;24.46;44.44;100482.53;10468578;28;20552;-70
2021/06/12 15:26:33;;;;;;;3.00;2.65;;;;;;;24.48;44.62;100488.59;10475568;28;20106;-69
2021/06/12 15:31:35;;;;;;;3.47;3.17;;;;;;;24.52;44.31;100489.88;10469942;28;20037;-70
2021/06/12 15:36:36;;;;;;;3.10;2.80;;;;;;;24.42;42.58;100473.13;10467101;28;20478;-69
2021/06/12 15:41:38;;;;;;;4.07;3.67;;;;;;;24.31;42.27;100480.03;10457602;28;20160;-70
2021/06/12 15:46:39;;;;;;;3.15;2.95;;;;;;;24.53;42.39;100480.66;10449633;28;20124;-70
2021/06/12 15:51:41;;;;;;;3.75;2.70;;;;;;;24.67;42.17;100482.34;10471214;28;20060;-70
2021/06/12 15:56:42;;;;;;;2.70;2.50;;;;;;;24.57;40.73;100479.19;10465057;28;20091;-69
2021/06/12 16:01:44;;;;;;;2.83;2.50;;;;;;;24.89;40.09;100492.97;10461938;28;20045;-69
2021/06/12 16:06:45;;;;;;;4.90;2.90;;;;;;;25.01;39.74;100485.00;10459972;28;20051;-69
2021/06/12 16:11:47;;;;;;;3.75;3.35;;;;;;;24.86;39.99;100468.91;10459622;28;20127;-68
2021/06/12 16:16:49;;;;;;;3.55;2.60;;;;;;;24.90;40.56;100486.50;10459111;28;20611;-67
2021/06/12 16:21:50;;;;;;;3.72;3.42;;;;;;;24.86;39.34;100474.34;10459540;28;20049;-67
2021/06/12 16:26:52;;;;;;;3.65;3.35;;;;;;;24.90;39.79;100467.44;10457913;28;20551;-68
2021/06/12 16:31:54;;;;;;;3.95;3.42;;;;;;;24.92;39.97;100468.09;10458300;28;20040;-69
2021/06/12 16:36:55;;;;;;;6.43;4.20;;;;;;;24.76;40.76;100490.31;10459398;28;20076;-69
2021/06/12 16:41:57;;;;;;;4.50;4.10;;;;;;;24.53;41.15;100477.94;10460145;28;20072;-68
2021/06/12 16:46:59;;;;;;;5.43;4.93;;;;;;;24.24;40.87;100476.47;10451576;28;20082;-69
2021/06/12 16:52:00;;;;;;;5.80;4.88;;;;;;;24.19;41.23;100507.00;10457103;28;20051;-69
2021/06/12 17:02:26;;;;;;;5.47;4.97;;;;;;;23.96;41.98;100502.78;10458390;28;20041;-69
2021/06/12 17:07:28;;;;;;;5.15;4.00;;;;;;;23.94;42.44;100521.16;10451875;28;20056;-69
2021/06/12 17:12:29;;;;;;;4.72;4.30;;;;;;;23.91;42.58;100527.00;10454062;28;20127;-70
2021/06/12 17:17:31;;;;;;;7.88;5.10;;;;;;;23.72;42.72;100527.75;10456309;28;20052;-70
2021/06/12 17:22:33;;;;;;;4.90;4.50;;;;;;;23.53;43.71;100524.75;10456581;28;20056;-68
2021/06/12 17:27:37;;;;;;;5.65;5.15;;;;;;;23.51;43.98;100534.16;10455032;28;20053;-69
2021/06/12 17:32:38;;;;;;;5.93;5.43;;;;;;;23.65;44.24;100544.88;10455770;28;20058;-69
2021/06/12 17:37:40;;;;;;;7.10;5.82;;;;;;;23.88;43.93;100553.78;10458056;28;20135;-69
2021/06/12 17:42:42;;;;;;;8.65;6.38;;;;;;;23.67;43.93;100550.09;10455150;28;20135;-69
2021/06/12 17:47:43;;;;;;;9.90;6.77;;;;;;;23.56;43.56;100556.13;10457166;28;20136;-69
2021/06/12 17:52:45;;;;;;;8.32;6.93;;;;;;;23.41;44.17;100556.25;10455205;28;20549;-69
2021/06/12 17:57:47;;;;;;;7.53;6.78;;;;;;;23.65;44.51;100577.47;10456137;28;20424;-69
2021/06/12 18:02:48;;;;;;;7.97;6.80;;;;;;;23.65;44.63;100582.91;10451942;28;20122;-68
2021/06/12 18:07:51;;;;;;;6.57;5.97;;;;;;;23.27;44.89;100575.19;10454167;28;20184;-69
2021/06/12 18:12:53;;;;;;;8.13;5.90;;;;;;;23.37;44.73;100584.84;10456113;28;20064;-69
2021/06/12 18:17:55;;;;;;;6.77;6.03;;;;;;;23.16;44.45;100573.03;10454586;28;20838;-68
2021/06/12 18:22:57;;;;;;;6.40;5.55;;;;;;;23.02;44.04;100591.06;10458726;28;20574;-68
2021/06/12 18:27:59;;;;;;;6.38;4.60;;;;;;;22.86;44.34;100596.78;10460402;28;20123;-70
2021/06/12 18:33:01;;;;;;;4.85;4.38;;;;;;;22.82;45.37;100587.34;10459042;28;20178;-69
2021/06/12 18:38:04;;;;;;;5.20;4.70;;;;;;;22.89;44.35;100607.25;10457447;28;20052;-69
2021/06/12 18:43:07;;;;;;;5.93;5.15;;;;;;;22.85;45.15;100604.09;10462425;28;20173;-70
2021/06/12 18:48:09;;;;;;;5.30;4.37;;;;;;;22.84;45.44;100607.84;10462006;28;20128;-69
2021/06/12 18:53:10;;;;;;;5.35;4.82;;;;;;;22.83;45.24;100608.03;10462492;28;20372;-69
2021/06/12 18:58:12;;;;;;;5.93;3.67;;;;;;;22.68;44.74;100608.94;10456372;28;20144;-68
2021/06/12 19:03:13;;;;;;;5.88;3.20;;;;;;;22.52;43.26;100606.47;10459921;28;20131;-69
2021/06/12 19:08:15;;;;;;;6.00;3.50;;;;;;;22.34;44.30;100628.63;10464241;28;20068;-69
2021/06/12 19:13:17;;;;;;;4.72;2.80;;;;;;;22.36;43.86;100626.56;10462836;28;20053;-70
2021/06/12 19:18:18;;;;;;;4.25;3.50;;;;;;;22.23;44.71;100633.50;10463654;28;20068;-69
2021/06/12 19:23:20;;;;;;;5.80;3.85;;;;;;;22.28;44.90;100630.22;10466093;28;20136;-69
2021/06/12 19:28:21;;;;;;;3.97;3.30;;;;;;;22.15;44.98;100644.44;10467471;28;20370;-69
2021/06/12 19:33:23;;;;;;;5.80;2.88;;;;;;;22.04;44.45;100643.06;10471331;28;20637;-69
2021/06/12 19:43:44;;;;;;;6.20;3.63;;;;;;;21.93;44.01;100665.22;10462542;28;20044;-70
2021/06/12 19:48:46;;;;;;;5.15;3.65;;;;;;;21.85;45.08;100674.28;10461770;28;20480;-69
2021/06/12 19:53:49;;;;;;;3.90;2.97;;;;;;;21.83;44.59;100703.47;10458866;28;20478;-69
2021/06/12 19:58:50;;;;;;;3.58;2.92;;;;;;;21.67;44.70;100698.22;10459350;28;20127;-69
2021/06/12 20:03:52;;;;;;;3.85;2.80;;;;;;;21.59;44.75;100707.28;10459698;28;20139;-70
2021/06/12 20:08:53;;;;;;;6.18;2.85;;;;;;;21.61;45.63;100715.22;10461995;28;20429;-69
2021/06/12 20:13:57;;;;;;;5.45;3.38;;;;;;;21.53;44.60;100721.56;10462775;28;20056;-68
2021/06/12 20:18:58;;;;;;;;;;;;;;;21.49;44.58;100744.56;10462646;28;20136;-69
2021/06/12 20:23:59;;;;;;;3.75;2.60;;;;;;;21.13;44.58;100718.97;10460964;28;20007;-73
2021/06/12 20:29:01;;;;;;;3.85;2.70;;;;;;;21.15;44.32;100753.97;10462406;28;20170;-69
2021/06/12 20:34:02;;;;;;;3.83;2.72;;;;;;;21.10;44.95;100759.94;10460659;28;20044;-68
2021/06/12 20:39:05;;;;;;;3.67;2.58;;;;;;;21.12;46.07;100760.63;10462009;28;20048;-73
2021/06/12 20:44:06;;;;;;;7.28;2.63;;;;;;;21.08;44.60;100743.06;10461081;28;20064;-65
2021/06/12 20:49:08;;;;;;;4.70;2.85;;;;;;;21.01;45.09;100758.31;10464872;28;20387;-69
2021/06/12 20:54:10;;;;;;;6.47;3.00;;;;;;;21.08;45.50;100759.28;10490572;28;20062;-70
2021/06/12 20:59:12;;;;;;;3.28;2.70;;;;;;;20.93;45.41;100758.41;10468371;28;20056;-69
2021/06/12 21:04:14;;;;;;;6.97;3.92;;;;;;;20.87;46.12;100754.53;10463333;28;20136;-69
2021/06/12 21:09:15;;;;;;;5.38;2.75;;;;;;;21.02;45.42;100776.25;10455948;28;20044;-69
2021/06/12 21:14:16;;;;;;;7.15;3.10;;;;;;;21.02;46.35;100792.50;10456445;28;20483;-69
2021/06/12 21:19:18;;;;;;;6.20;3.05;;;;;;;21.06;46.43;100785.69;10458863;28;20133;-68
2021/06/12 21:24:19;;;;;;;3.78;2.33;;;;;;;21.10;46.16;100802.41;10457970;28;20071;-70
2021/06/12 21:29:21;;;;;;;5.57;3.00;;;;;;;21.04;46.25;100805.84;10446583;28;20494;-68
2021/06/12 21:34:23;;;;;;;7.00;4.47;;;;;;;20.75;46.07;100799.25;10465313;28;20076;-69
2021/06/12 21:39:24;;;;;;;4.30;2.70;;;;;;;20.69;46.54;100798.09;10450169;28;20072;-71
2021/06/12 21:44:26;;;;;;;3.95;2.58;;;;;;;20.72;46.34;100813.97;10455516;28;20044;-69
2021/06/12 21:49:27;;;;;;;3.25;2.90;;;;;;;20.71;45.89;100823.09;10476854;28;20048;-69
2021/06/12 21:54:29;;;;;;;5.13;2.75;;;;;;;20.55;45.99;100823.97;10464507;28;20578;-69
2021/06/12 21:59:30;;;;;;;4.30;1.83;;;;;;;20.51;46.25;100832.59;10464890;28;20140;-70
2021/06/12 22:04:32;;;;;;;4.88;2.97;;;;;;;20.38;46.57;100834.00;10450549;28;20128;-69
2021/06/12 22:09:33;;;;;;;7.05;2.15;;;;;;;20.47;47.09;100838.34;10464397;28;20060;-70
2021/06/12 22:14:35;;;;;;;4.93;2.58;;;;;;;20.45;46.31;100835.00;10468049;28;20131;-68
2021/06/12 22:19:36;;;;;;;5.32;2.97;;;;;;;20.57;46.28;100853.56;10477505;28;20098;-69
2021/06/12 22:24:37;;;;;;;4.68;2.42;;;;;;;20.54;45.77;100837.69;10462962;28;20064;-68
2021/06/12 22:29:39;;;;;;;5.47;2.92;;;;;;;20.58;45.47;100856.09;10468378;28;20037;-69
2021/06/12 22:34:41;;;;;;;4.13;3.08;;;;;;;20.44;45.88;100838.69;10472228;28;20054;-70
2021/06/12 22:39:42;;;;;;;4.80;2.55;;;;;;;20.44;45.87;100840.56;10460062;28;20049;-69
2021/06/12 22:44:44;;;;;;;7.47;3.03;;;;;;;20.34;45.66;100854.28;10467825;28;20199;-70
2021/06/12 22:49:45;;;;;;;5.15;2.10;;;;;;;20.31;46.68;100860.88;10476911;28;20123;-69
2021/06/12 22:54:46;;;;;;;5.68;3.10;;;;;;;20.35;45.98;100869.50;10468090;28;20087;-69
2021/06/12 22:59:48;;;;;;;3.78;2.58;;;;;;;20.28;45.89;100863.06;10467793;28;20111;-70
2021/06/12 23:04:49;;;;;;;4.25;1.90;;;;;;;20.17;45.85;100845.38;10462123;28;20738;-69
2021/06/12 23:09:50;;;;;;;3.45;2.25;;;;;;;20.27;45.85;100866.81;10465234;28;20056;-69
2021/06/12 23:14:52;;;;;;;2.97;2.15;;;;;;;20.17;45.88;100864.28;10465407;28;20132;-69
2021/06/12 23:19:53;;;;;;;5.47;2.30;;;;;;;20.17;46.07;100875.09;10487899;28;20053;-70
2021/06/12 23:24:55;;;;;;;3.22;2.17;;;;;;;20.07;46.59;100869.03;10465907;28;20068;-69